createdAt,value
2023-03-22T00:00:18.197Z,55.6883
2023-03-22T00:01:19.606Z,55.5215
2023-03-22T00:02:21.054Z,55.3110
2023-03-22T00:03:22.510Z,55.4864
2023-03-22T00:04:23.861Z,56.1274
2023-03-22T00:05:25.289Z,55.9457
2023-03-22T00:06:26.724Z,55.9787
2023-03-22T00:07:28.153Z,56.1318
2023-03-22T00:08:29.558Z,56.0309
2023-03-22T00:09:30.974Z,56.2714
2023-03-22T00:10:32.398Z,56.0753
2023-03-22T00:11:33.806Z,56.1885
2023-03-22T00:12:35.254Z,56.1297
2023-03-22T00:13:36.681Z,56.3543
2023-03-22T00:14:38.106Z,56.2075
2023-03-22T00:15:39.560Z,56.2797
2023-03-22T00:16:40.934Z,56.1938
2023-03-22T00:17:42.344Z,56.2894
2023-03-22T00:18:43.767Z,56.4925
2023-03-22T00:19:45.202Z,56.5177
2023-03-22T00:20:46.618Z,56.3471
2023-03-22T00:21:48.034Z,56.4921
2023-03-22T00:22:49.460Z,56.4185
2023-03-22T00:23:50.886Z,56.5439
2023-03-22T00:24:52.322Z,56.5482
2023-03-22T00:25:53.718Z,56.7361
2023-03-22T00:26:55.156Z,56.6674
2023-03-22T00:27:56.576Z,56.7232
2023-03-22T00:28:58.016Z,57.0120
2023-03-22T00:29:59.547Z,56.7231
2023-03-22T00:31:00.948Z,56.8232
2023-03-22T00:32:02.291Z,56.6305
2023-03-22T00:33:03.726Z,56.7968
2023-03-22T00:34:05.132Z,57.0934
2023-03-22T00:35:06.574Z,57.1065
2023-03-22T00:36:07.988Z,57.3371
2023-03-22T00:37:09.432Z,57.0124
2023-03-22T00:38:10.841Z,57.2292
2023-03-22T00:39:12.263Z,57.2157
2023-03-22T00:40:13.676Z,57.0601
2023-03-22T00:41:15.115Z,57.3893
2023-03-22T00:42:16.528Z,57.3300
2023-03-22T00:43:17.966Z,57.1854
2023-03-22T00:44:19.377Z,57.3001
2023-03-22T00:45:20.823Z,57.4440
2023-03-22T00:46:22.320Z,57.2696
2023-03-22T00:47:23.667Z,57.1466
2023-03-22T00:48:25.111Z,57.4131
2023-03-22T00:49:26.514Z,57.6156
2023-03-22T00:50:27.926Z,57.6104
2023-03-22T00:51:29.364Z,57.5206
2023-03-22T00:52:30.767Z,57.8319
2023-03-22T00:53:32.195Z,57.7161
2023-03-22T00:54:33.619Z,57.6914
2023-03-22T00:55:35.051Z,57.5905
2023-03-22T00:56:36.488Z,57.8209
2023-03-22T00:57:37.952Z,57.8188
2023-03-22T00:58:39.317Z,57.8738
2023-03-22T00:59:40.757Z,57.9351
2023-03-22T01:00:42.518Z,57.9757
2023-03-22T01:01:43.602Z,57.8749
2023-03-22T01:02:45.038Z,57.7698
2023-03-22T01:03:46.489Z,57.9289
2023-03-22T01:04:47.887Z,57.7181
2023-03-22T01:05:49.409Z,58.0406
2023-03-22T01:06:50.820Z,58.0816
2023-03-22T01:07:52.239Z,57.9425
2023-03-22T01:08:53.672Z,58.0710
2023-03-22T01:09:55.099Z,58.1763
2023-03-22T01:10:56.521Z,58.0776
2023-03-22T01:11:57.928Z,58.0292
2023-03-22T01:12:59.360Z,58.1180
2023-03-22T01:14:00.794Z,58.0155
2023-03-22T01:15:02.242Z,58.1909
2023-03-22T01:16:03.661Z,58.0250
2023-03-22T01:17:05.077Z,58.1958
2023-03-22T01:18:06.508Z,58.1672
2023-03-22T01:19:07.918Z,58.2086
2023-03-22T01:20:09.355Z,57.8606
2023-03-22T01:21:10.766Z,58.1361
2023-03-22T01:22:12.195Z,57.9821
2023-03-22T01:23:13.631Z,58.1403
2023-03-22T01:24:15.039Z,58.3723
2023-03-22T01:25:16.448Z,58.3854
2023-03-22T01:26:17.903Z,58.2005
2023-03-22T01:27:19.306Z,58.4881
2023-03-22T01:28:20.761Z,58.5361
2023-03-22T01:29:22.161Z,58.4897
2023-03-22T01:30:23.607Z,58.4861
2023-03-22T01:31:25.007Z,58.2639
2023-03-22T01:32:26.443Z,58.6002
2023-03-22T01:33:27.873Z,58.4030
2023-03-22T01:34:29.301Z,58.6870
2023-03-22T01:35:30.781Z,58.6646
2023-03-22T01:36:32.158Z,58.5275
2023-03-22T01:37:33.593Z,58.6472
2023-03-22T01:38:35.041Z,58.7628
2023-03-22T01:39:36.441Z,58.5343
2023-03-22T01:40:38.319Z,58.7927
2023-03-22T01:41:39.289Z,58.9064
2023-03-22T01:42:40.722Z,58.9549
2023-03-22T01:43:42.196Z,59.0266
2023-03-22T01:44:43.579Z,58.8605
2023-03-22T01:45:45.003Z,58.9273
2023-03-22T01:46:46.438Z,58.9100
2023-03-22T01:47:47.846Z,58.8320
2023-03-22T01:48:49.327Z,59.1228
2023-03-22T01:49:50.705Z,59.2163
2023-03-22T01:50:52.139Z,59.0349
2023-03-22T01:51:53.557Z,59.2394
2023-03-22T01:52:54.988Z,59.2415
2023-03-22T01:53:56.423Z,59.1318
2023-03-22T01:54:57.835Z,59.0282
2023-03-22T01:55:59.260Z,59.1753
2023-03-22T01:57:00.697Z,59.2010
2023-03-22T01:58:02.101Z,59.4000
2023-03-22T01:59:03.537Z,59.2859
2023-03-22T02:00:04.945Z,59.2358
2023-03-22T02:01:06.469Z,59.4463
2023-03-22T02:02:07.797Z,59.5114
2023-03-22T02:03:09.220Z,59.5229
2023-03-22T02:04:10.656Z,59.5615
2023-03-22T02:05:12.090Z,59.6630
2023-03-22T02:06:13.515Z,59.6936
2023-03-22T02:07:14.916Z,59.8449
2023-03-22T02:08:16.345Z,59.8424
2023-03-22T02:09:17.783Z,59.6578
2023-03-22T02:10:19.201Z,59.7148
2023-03-22T02:11:20.648Z,59.6711
2023-03-22T02:12:22.055Z,59.5485
2023-03-22T02:13:23.504Z,59.6138
2023-03-22T02:14:27.191Z,59.8762
2023-03-22T02:15:26.311Z,59.8476
2023-03-22T02:16:27.752Z,59.6685
2023-03-22T02:17:29.174Z,59.8204
2023-03-22T02:18:30.568Z,59.6705
2023-03-22T02:19:31.986Z,59.7421
2023-03-22T02:20:33.393Z,60.0491
2023-03-22T02:21:34.812Z,59.7309
2023-03-22T02:22:36.210Z,59.6945
2023-03-22T02:23:37.682Z,59.8563
2023-03-22T02:24:39.073Z,59.7890
2023-03-22T02:25:40.501Z,59.7859
2023-03-22T02:26:41.913Z,59.8418
2023-03-22T02:27:43.341Z,59.7688
2023-03-22T02:28:44.828Z,59.8749
2023-03-22T02:29:46.194Z,59.6924
2023-03-22T02:30:47.606Z,60.1417
2023-03-22T02:31:49.047Z,59.8684
2023-03-22T02:32:50.437Z,60.1865
2023-03-22T02:33:51.871Z,60.0236
2023-03-22T02:34:53.274Z,60.1079
2023-03-22T02:35:54.716Z,59.9959
2023-03-22T02:36:56.124Z,60.1244
2023-03-22T02:37:57.579Z,60.2626
2023-03-22T02:38:58.961Z,59.9966
2023-03-22T02:40:00.374Z,60.1912
2023-03-22T02:41:01.797Z,60.2063
2023-03-22T02:42:03.242Z,59.9074
2023-03-22T02:43:04.632Z,59.9674
2023-03-22T02:44:06.081Z,60.1083
2023-03-22T02:45:07.472Z,60.0061
2023-03-22T02:46:09.020Z,60.1021
2023-03-22T02:47:10.318Z,60.2533
2023-03-22T02:48:11.805Z,60.0851
2023-03-22T02:49:13.193Z,60.0766
2023-03-22T02:50:14.588Z,60.2316
2023-03-22T02:51:15.996Z,60.2488
2023-03-22T02:52:17.437Z,60.0602
2023-03-22T02:53:18.849Z,60.1856
2023-03-22T02:54:20.307Z,60.2533
2023-03-22T02:55:21.675Z,60.2181
2023-03-22T02:56:23.136Z,60.2369
2023-03-22T02:57:24.528Z,60.1102
2023-03-22T02:58:25.964Z,60.3500
2023-03-22T02:59:27.373Z,60.2986
2023-03-22T03:00:28.844Z,60.3047
2023-03-22T03:01:30.295Z,60.3445
2023-03-22T03:02:31.684Z,60.2762
2023-03-22T03:03:33.071Z,60.2291
2023-03-22T03:04:34.507Z,60.2581
2023-03-22T03:05:35.906Z,60.2133
2023-03-22T03:06:37.347Z,60.2629
2023-03-22T03:07:38.774Z,60.2990
2023-03-22T03:08:40.188Z,60.1929
2023-03-22T03:09:41.623Z,60.2615
2023-03-22T03:10:43.049Z,60.2780
2023-03-22T03:11:44.472Z,60.3445
2023-03-22T03:12:45.891Z,60.2472
2023-03-22T03:13:47.307Z,60.2515
2023-03-22T03:14:48.741Z,60.1809
2023-03-22T03:15:50.155Z,60.3611
2023-03-22T03:16:51.591Z,60.2682
2023-03-22T03:17:52.999Z,60.3498
2023-03-22T03:18:54.413Z,60.4156
2023-03-22T03:19:55.830Z,60.3518
2023-03-22T03:20:57.269Z,60.4976
2023-03-22T03:21:58.680Z,60.4676
2023-03-22T03:23:00.112Z,60.2369
2023-03-22T03:24:01.544Z,60.3547
2023-03-22T03:25:02.938Z,60.3984
2023-03-22T03:26:04.352Z,60.5314
2023-03-22T03:27:05.775Z,60.5052
2023-03-22T03:28:07.238Z,60.5354
2023-03-22T03:29:08.627Z,60.4065
2023-03-22T03:30:10.079Z,60.5689
2023-03-22T03:31:11.544Z,60.5922
2023-03-22T03:32:12.905Z,60.4201
2023-03-22T03:33:14.421Z,60.5935
2023-03-22T03:34:15.757Z,60.8691
2023-03-22T03:35:17.203Z,60.7818
2023-03-22T03:36:18.596Z,60.8556
2023-03-22T03:37:20.015Z,60.9531
2023-03-22T03:38:21.442Z,61.0137
2023-03-22T03:39:22.845Z,60.9175
2023-03-22T03:40:24.280Z,61.0326
2023-03-22T03:41:25.697Z,61.0744
2023-03-22T03:42:27.121Z,60.9086
2023-03-22T03:43:28.554Z,61.2559
2023-03-22T03:44:29.988Z,61.1113
2023-03-22T03:45:31.405Z,61.2393
2023-03-22T03:46:32.829Z,61.1947
2023-03-22T03:47:34.248Z,61.0981
2023-03-22T03:48:35.687Z,61.1904
2023-03-22T03:49:37.091Z,61.3935
2023-03-22T03:50:38.868Z,61.4147
2023-03-22T03:51:39.916Z,61.3759
2023-03-22T03:52:41.376Z,61.3752
2023-03-22T03:53:42.767Z,61.4284
2023-03-22T03:54:44.204Z,61.4216
2023-03-22T03:55:45.610Z,61.4926
2023-03-22T03:56:47.033Z,61.3760
2023-03-22T03:57:48.453Z,61.3458
2023-03-22T03:58:49.876Z,61.3922
2023-03-22T03:59:51.316Z,61.2774
2023-03-22T04:00:52.751Z,61.4223
2023-03-22T04:01:54.238Z,61.3189
2023-03-22T04:02:55.576Z,61.5907
2023-03-22T04:03:57.017Z,61.4514
2023-03-22T04:04:58.431Z,61.1464
2023-03-22T04:05:59.971Z,61.3019
2023-03-22T04:07:01.273Z,61.6284
2023-03-22T04:08:02.691Z,61.2071
2023-03-22T04:09:04.138Z,61.6522
2023-03-22T04:10:05.570Z,61.1091
2023-03-22T04:11:06.976Z,61.4552
2023-03-22T04:12:08.403Z,61.5409
2023-03-22T04:13:09.794Z,61.6412
2023-03-22T04:14:11.209Z,61.2634
2023-03-22T04:15:12.638Z,61.4137
2023-03-22T04:16:14.114Z,61.5919
2023-03-22T04:17:15.485Z,61.6443
2023-03-22T04:18:16.896Z,61.4998
2023-03-22T04:19:18.317Z,61.6798
2023-03-22T04:20:19.753Z,61.6150
2023-03-22T04:21:21.212Z,61.5852
2023-03-22T04:22:22.587Z,61.6186
2023-03-22T04:23:24.033Z,61.5286
2023-03-22T04:24:25.476Z,61.6545
2023-03-22T04:25:26.859Z,61.8623
2023-03-22T04:26:28.289Z,61.7454
2023-03-22T04:27:29.714Z,61.7324
2023-03-22T04:28:31.119Z,61.4392
2023-03-22T04:29:32.546Z,61.8104
2023-03-22T04:30:33.970Z,61.7685
2023-03-22T04:31:35.395Z,61.9473
2023-03-22T04:32:36.819Z,61.6750
2023-03-22T04:33:38.251Z,61.1346
2023-03-22T04:34:39.679Z,61.0476
2023-03-22T04:35:41.154Z,61.0394
2023-03-22T04:36:42.526Z,60.8985
2023-03-22T04:37:43.949Z,61.0780
2023-03-22T04:38:45.367Z,61.0321
2023-03-22T04:39:46.801Z,60.7888
2023-03-22T04:40:48.215Z,60.6728
2023-03-22T04:41:49.635Z,60.3785
2023-03-22T04:42:51.055Z,60.0899
2023-03-22T04:43:52.520Z,59.7147
2023-03-22T04:44:53.894Z,59.7036
2023-03-22T04:45:55.365Z,59.3700
2023-03-22T04:46:56.735Z,52.3799
2023-03-22T04:47:58.169Z,50.1325
2023-03-22T04:48:59.570Z,49.9829
2023-03-22T04:50:01.006Z,51.1060
2023-03-22T04:51:02.424Z,51.0269
2023-03-22T04:52:03.836Z,53.1587
2023-03-22T04:53:05.261Z,53.8033
2023-03-22T04:54:06.702Z,53.7646
2023-03-22T04:55:08.121Z,54.1390
2023-03-22T04:56:09.531Z,56.6853
2023-03-22T04:57:10.960Z,55.7446
2023-03-22T04:58:12.370Z,55.3479
2023-03-22T04:59:13.782Z,55.3466
2023-03-22T05:00:15.288Z,55.5555
